RJFR(METAR)
02/02 03:00
METAR RJFR 011800Z 36011KT 9999 FEW030 BKN050 08/02 Q1019 RMK 1CU030
7SC050 A3012=
戻る
トップページへ戻る
IMOC Co,.Ltd.